Time;durP1;ratioP1;P1;durP2;ratioP2;P2;SDS_P1;SDS_P2;PMS_P1;PMS_P2;Temp;Humidity;BMP_temperature;BMP_pressure;BME280_temperature;BME280_humidity;BME280_pressure;Samples;Min_cycle;Max_cycle;Signal;HPM_P1;HPM_P2
2024/01/25 00:00:03;;;;;;;30.00;7.10;;;7.80;99.90;;;;;;5020804;28;20025;-90
2024/01/25 00:02:28;;;;;;;32.30;7.50;;;7.80;99.90;;;;;;5036941;28;20045;-94
2024/01/25 00:04:54;;;;;;;28.43;6.83;;;7.80;99.90;;;;;;5034794;28;20127;-92
2024/01/25 00:07:20;;;;;;;31.43;7.30;;;7.80;99.90;;;;;;5036854;28;20045;-92
2024/01/25 00:09:46;;;;;;;30.93;7.20;;;7.90;99.90;;;;;;5047399;28;20562;-91
2024/01/25 00:12:11;;;;;;;33.77;6.90;;;7.90;99.90;;;;;;5038762;28;20124;-92
2024/01/25 00:14:37;;;;;;;30.20;7.43;;;7.90;99.90;;;;;;5040340;28;20041;-91
2024/01/25 00:17:03;;;;;;;25.37;6.23;;;7.90;99.90;;;;;;5038604;28;20037;-92
2024/01/25 00:19:29;;;;;;;27.93;6.90;;;7.90;99.90;;;;;;5015134;28;20040;-93
2024/01/25 00:21:54;;;;;;;30.97;7.73;;;7.90;99.90;;;;;;5039270;28;20036;-92
2024/01/25 00:24:21;;;;;;;25.97;6.87;;;7.80;99.90;;;;;;5037938;28;20080;-95
2024/01/25 00:26:47;;;;;;;34.90;6.50;;;7.90;99.90;;;;;;5047457;28;20045;-91
2024/01/25 00:29:15;;;;;;;26.70;6.77;;;7.80;99.90;;;;;;5036873;28;20037;-94
2024/01/25 00:31:41;;;;;;;22.77;6.43;;;7.90;99.90;;;;;;5057158;28;20127;-90
2024/01/25 00:34:15;;;;;;;26.97;6.30;;;7.80;99.90;;;;;;5038803;28;20073;-95
2024/01/25 00:36:41;;;;;;;32.93;7.03;;;7.80;99.90;;;;;;5040223;28;20032;-94
2024/01/25 00:39:08;;;;;;;25.57;6.57;;;7.80;99.90;;;;;;5019102;28;20043;-91
2024/01/25 00:41:35;;;;;;;28.03;7.30;;;7.80;99.90;;;;;;5022648;28;20482;-93
2024/01/25 00:51:23;;;;;;;33.63;7.37;;;7.70;99.90;;;;;;5061724;28;20036;-89
2024/01/25 00:53:49;;;;;;;29.23;6.70;;;7.60;99.90;;;;;;5041558;28;20119;-94
2024/01/25 00:56:15;;;;;;;23.83;6.23;;;7.50;99.90;;;;;;5037911;28;20044;-92
2024/01/25 00:58:47;;;;;;;32.80;7.70;;;7.50;99.90;;;;;;5028738;28;20048;-92
2024/01/25 01:01:13;;;;;;;;;;;7.50;99.90;;;;;;5053405;28;20481;-92
2024/01/25 01:03:39;;;;;;;33.03;7.30;;;7.40;99.90;;;;;;5032266;28;19924;-92
2024/01/25 01:06:05;;;;;;;26.70;6.83;;;7.40;99.90;;;;;;5025833;28;20041;-93
2024/01/25 01:08:31;;;;;;;33.17;8.33;;;7.40;99.90;;;;;;5025074;28;20104;-91
2024/01/25 01:11:04;;;;;;;28.53;6.77;;;7.40;99.90;;;;;;5043336;28;20044;-94
2024/01/25 01:13:30;;;;;;;31.00;6.27;;;7.40;99.90;;;;;;5040412;28;20041;-93
2024/01/25 01:15:57;;;;;;;25.67;7.10;;;7.30;99.90;;;;;;5041829;28;20082;-92
2024/01/25 01:18:23;;;;;;;26.07;6.63;;;7.30;99.90;;;;;;5042875;28;20041;-91
2024/01/25 01:20:49;;;;;;;32.50;7.10;;;7.30;99.90;;;;;;5042550;28;20059;-93
2024/01/25 01:23:14;;;;;;;30.53;7.13;;;7.30;99.90;;;;;;5040507;28;20033;-89
2024/01/25 01:25:40;;;;;;;28.73;6.47;;;7.30;99.90;;;;;;5043978;28;20492;-90
2024/01/25 01:28:06;;;;;;;29.67;7.23;;;7.30;99.90;;;;;;5059149;28;20054;-93
2024/01/25 01:30:32;;;;;;;34.40;7.40;;;7.20;99.90;;;;;;5032887;28;20048;-92
2024/01/25 01:32:57;;;;;;;29.30;7.30;;;7.10;99.90;;;;;;5024734;28;20427;-93
2024/01/25 01:35:23;;;;;;;27.57;7.37;;;7.10;99.90;;;;;;5043292;28;20036;-93
2024/01/25 01:37:49;;;;;;;39.40;7.20;;;7.00;99.90;;;;;;5061994;28;20039;-91
2024/01/25 01:40:15;;;;;;;35.17;7.77;;;7.00;99.90;;;;;;5060709;28;20048;-94
2024/01/25 01:42:40;;;;;;;28.63;7.70;;;7.00;99.90;;;;;;5041063;28;20480;-92
2024/01/25 01:45:07;;;;;;;28.23;7.53;;;7.00;99.90;;;;;;5031227;28;20179;-93
2024/01/25 01:47:37;;;;;;;35.73;7.00;;;6.90;99.90;;;;;;5043256;28;20066;-93
2024/01/25 01:50:04;;;;;;;35.93;7.57;;;6.90;99.90;;;;;;5007437;28;20076;-94
2024/01/25 01:52:30;;;;;;;32.23;6.63;;;6.80;99.90;;;;;;5002980;28;20046;-93
2024/01/25 01:54:56;;;;;;;38.23;7.83;;;6.80;99.90;;;;;;5001577;28;20128;-92
2024/01/25 01:57:23;;;;;;;36.37;7.43;;;6.80;99.90;;;;;;5004211;28;20089;-92
2024/01/25 01:59:50;;;;;;;28.20;7.50;;;6.70;99.90;;;;;;5001108;28;20046;-90
2024/01/25 02:02:16;;;;;;;35.33;8.07;;;6.70;99.90;;;;;;5018876;28;20069;-93
2024/01/25 02:04:43;;;;;;;34.90;7.67;;;6.70;99.90;;;;;;5019314;28;20045;-91
2024/01/25 02:07:09;;;;;;;36.27;8.50;;;6.70;99.90;;;;;;5002991;28;20478;-91
2024/01/25 02:09:35;;;;;;;33.67;7.77;;;6.60;99.90;;;;;;5000542;28;20054;-95
2024/01/25 02:12:39;;;;;;;40.43;8.37;;;6.60;99.90;;;;;;5015878;28;20037;-95
2024/01/25 02:15:13;;;;;;;31.30;7.47;;;6.50;99.90;;;;;;5006933;28;20041;-95
2024/01/25 02:17:42;;;;;;;38.20;7.47;;;6.50;99.90;;;;;;5002989;28;20547;-91
2024/01/25 02:20:08;;;;;;;31.00;8.00;;;6.50;99.90;;;;;;4993939;28;20049;-94
2024/01/25 02:22:34;;;;;;;41.47;8.87;;;6.40;99.90;;;;;;5007042;28;20037;-88
2024/01/25 02:25:00;;;;;;;36.37;7.40;;;6.40;99.90;;;;;;5039264;28;20442;-90
2024/01/25 02:27:25;;;;;;;32.60;7.60;;;6.40;99.90;;;;;;5022900;28;20622;-93
2024/01/25 02:29:51;;;;;;;38.47;7.87;;;6.40;99.90;;;;;;5041784;28;20098;-89
2024/01/25 02:32:17;;;;;;;36.47;8.40;;;6.40;99.90;;;;;;5039474;28;20111;-91
2024/01/25 02:34:43;;;;;;;37.43;6.80;;;6.40;99.90;;;;;;5045524;28;20051;-92
2024/01/25 02:37:11;;;;;;;38.77;8.83;;;6.40;99.90;;;;;;5009224;28;20116;-93
2024/01/25 02:39:36;;;;;;;40.07;8.40;;;6.30;99.90;;;;;;5041183;28;20041;-93
2024/01/25 02:42:02;;;;;;;38.47;9.13;;;6.30;99.90;;;;;;5039726;28;20039;-93
2024/01/25 02:44:28;;;;;;;37.47;8.47;;;6.30;99.90;;;;;;5026105;28;20127;-92
2024/01/25 02:46:54;;;;;;;32.73;7.83;;;6.20;99.90;;;;;;5036948;28;20501;-95
2024/01/25 02:49:20;;;;;;;32.23;7.53;;;6.30;99.90;;;;;;5049090;28;20051;-93
2024/01/25 02:51:45;;;;;;;33.00;7.87;;;6.30;99.90;;;;;;5022849;28;20081;-92
2024/01/25 02:54:11;;;;;;;32.93;7.67;;;6.20;99.90;;;;;;5042389;28;21550;-89
2024/01/25 02:56:37;;;;;;;29.53;8.17;;;6.20;99.90;;;;;;5053516;28;20055;-94
2024/01/25 02:59:21;;;;;;;37.50;8.23;;;6.20;99.90;;;;;;5017910;28;20127;-94
2024/01/25 03:01:47;;;;;;;38.57;9.13;;;6.20;99.90;;;;;;5041439;28;20040;-93
2024/01/25 03:04:13;;;;;;;40.57;9.00;;;6.30;99.90;;;;;;5043034;28;20033;-92
2024/01/25 03:06:40;;;;;;;37.47;8.37;;;6.30;99.90;;;;;;5043173;28;20132;-95
2024/01/25 03:09:06;;;;;;;38.20;8.63;;;6.30;99.90;;;;;;5028413;28;20047;-91
2024/01/25 03:11:32;;;;;;;35.30;8.50;;;6.20;99.90;;;;;;5038388;28;20037;-91
2024/01/25 03:13:58;;;;;;;33.67;7.80;;;6.20;99.90;;;;;;5039742;28;20048;-91
2024/01/25 03:16:24;;;;;;;34.50;7.57;;;6.20;99.90;;;;;;5025752;28;20086;-93
2024/01/25 03:18:49;;;;;;;32.33;7.57;;;6.20;99.90;;;;;;5026429;28;20033;-93
2024/01/25 03:24:57;;;;;;;40.78;7.75;;;6.20;99.90;;;;;;5059463;28;20072;-91
2024/01/25 03:27:23;;;;;;;38.47;8.83;;;6.10;99.90;;;;;;5039641;28;20087;-93
2024/01/25 03:29:49;;;;;;;40.37;8.37;;;6.10;99.90;;;;;;5039765;28;20488;-93
2024/01/25 03:32:15;;;;;;;32.97;8.13;;;6.10;99.90;;;;;;5043733;28;20555;-93
2024/01/25 03:38:22;;;;;;;33.53;7.93;;;6.00;99.90;;;;;;5050230;28;20055;-92
2024/01/25 03:40:47;;;;;;;44.30;8.27;;;5.90;99.90;;;;;;5026487;28;20037;-92
2024/01/25 03:43:13;;;;;;;34.50;7.63;;;6.00;99.90;;;;;;5039274;28;20179;-93
2024/01/25 03:45:39;;;;;;;40.20;8.20;;;5.90;99.90;;;;;;5025173;28;20047;-92
2024/01/25 03:48:05;;;;;;;40.27;8.00;;;5.90;99.90;;;;;;5036781;28;20461;-93
2024/01/25 03:50:31;;;;;;;40.30;8.53;;;5.90;99.90;;;;;;5037155;28;20033;-93
2024/01/25 03:52:56;;;;;;;36.47;8.40;;;5.80;99.90;;;;;;5040305;28;20113;-90
2024/01/25 03:55:22;;;;;;;36.23;7.80;;;5.80;99.90;;;;;;5037940;28;20037;-93
2024/01/25 03:57:49;;;;;;;40.97;9.27;;;5.80;99.90;;;;;;5039960;28;20053;-94
2024/01/25 04:00:15;;;;;;;35.03;8.23;;;5.80;99.90;;;;;;5043932;28;20040;-93
2024/01/25 04:02:41;;;;;;;36.90;8.37;;;5.70;99.90;;;;;;5044846;28;20044;-94
2024/01/25 04:05:07;;;;;;;33.33;8.00;;;5.70;99.90;;;;;;5039592;28;20084;-92
2024/01/25 04:07:33;;;;;;;28.03;7.67;;;5.70;99.90;;;;;;5041489;28;20040;-94
2024/01/25 04:09:59;;;;;;;38.17;7.83;;;5.60;99.90;;;;;;5043509;28;20055;-91
2024/01/25 04:12:25;;;;;;;33.83;7.43;;;5.60;99.90;;;;;;5024615;28;20037;-92
2024/01/25 04:14:50;;;;;;;38.53;7.97;;;5.60;99.90;;;;;;5041659;28;20124;-94
2024/01/25 04:17:19;;;;;;;41.47;7.83;;;5.60;99.90;;;;;;5043364;28;20037;-94
2024/01/25 04:19:44;;;;;;;37.67;7.43;;;5.50;99.90;;;;;;5041871;28;20044;-91
2024/01/25 04:22:10;;;;;;;36.13;8.87;;;5.60;99.90;;;;;;5037575;28;20480;-93
2024/01/25 04:24:36;;;;;;;32.97;8.17;;;5.60;99.90;;;;;;5023821;28;20049;-92
2024/01/25 04:27:02;;;;;;;35.43;8.00;;;5.60;99.90;;;;;;5039887;28;20052;-94
2024/01/25 04:29:27;;;;;;;36.27;8.50;;;5.50;99.90;;;;;;5040557;28;20041;-90
2024/01/25 04:31:53;;;;;;;29.83;8.20;;;5.50;99.90;;;;;;5036751;28;20504;-93
2024/01/25 04:34:19;;;;;;;33.90;8.40;;;5.50;99.90;;;;;;5037647;28;20036;-92
2024/01/25 04:36:45;;;;;;;38.97;8.37;;;5.50;99.90;;;;;;5039801;28;20037;-95
2024/01/25 04:39:14;;;;;;;32.63;7.87;;;5.50;99.90;;;;;;5076156;28;20039;-94
2024/01/25 04:41:40;;;;;;;31.43;7.73;;;5.40;99.90;;;;;;5052497;28;20120;-93
2024/01/25 04:44:06;;;;;;;33.00;7.73;;;5.40;99.90;;;;;;5043836;28;20071;-93
2024/01/25 04:46:37;;;;;;;31.03;7.77;;;5.40;99.90;;;;;;5045683;28;20139;-91
2024/01/25 04:49:19;;;;;;;38.15;8.82;;;5.40;99.90;;;;;;5046043;28;20037;-94
2024/01/25 04:52:00;;;;;;;31.57;7.73;;;5.40;99.90;;;;;;5057291;28;20040;-91
2024/01/25 04:54:26;;;;;;;36.37;7.83;;;5.40;99.90;;;;;;5039583;28;20048;-92
2024/01/25 04:56:53;;;;;;;36.77;8.30;;;5.40;99.90;;;;;;5043559;28;20107;-95
2024/01/25 04:59:19;;;;;;;36.57;7.87;;;5.30;99.90;;;;;;5047218;28;20045;-91
2024/01/25 05:02:22;;;;;;;34.40;8.20;;;5.30;99.90;;;;;;5041222;28;20087;-92
2024/01/25 05:04:47;;;;;;;41.67;8.53;;;5.30;99.90;;;;;;5036494;28;20033;-92
2024/01/25 05:07:13;;;;;;;33.97;9.13;;;5.40;99.90;;;;;;5038957;28;20075;-91
2024/01/25 05:09:39;;;;;;;32.87;7.80;;;5.40;99.90;;;;;;5040615;28;20071;-91
2024/01/25 05:12:05;;;;;;;48.77;9.00;;;5.40;99.90;;;;;;5052019;28;20098;-94
2024/01/25 05:14:31;;;;;;;31.77;7.47;;;5.40;99.90;;;;;;5049155;28;20072;-93
2024/01/25 05:16:57;;;;;;;34.77;8.50;;;5.40;99.90;;;;;;5027156;28;20040;-94
2024/01/25 05:19:22;;;;;;;37.00;7.60;;;5.30;99.90;;;;;;5044173;28;20044;-94
2024/01/25 05:21:48;;;;;;;34.17;8.47;;;5.30;99.90;;;;;;5041447;28;20037;-92
2024/01/25 05:24:14;;;;;;;34.20;7.67;;;5.30;99.90;;;;;;5019948;28;20106;-91
2024/01/25 05:26:39;;;;;;;44.10;9.20;;;5.30;99.90;;;;;;5042451;28;20037;-92
2024/01/25 05:29:05;;;;;;;34.63;7.83;;;5.30;99.90;;;;;;5032650;28;20115;-92
2024/01/25 05:31:31;;;;;;;30.33;7.67;;;5.30;99.90;;;;;;5027773;28;20045;-93
2024/01/25 05:33:57;;;;;;;37.53;8.60;;;5.30;99.90;;;;;;5036549;28;20041;-94
2024/01/25 05:36:22;;;;;;;36.33;8.60;;;5.30;99.90;;;;;;5026100;28;20039;-90
2024/01/25 05:38:52;;;;;;;36.53;8.07;;;5.30;99.90;;;;;;5058859;28;20037;-95
2024/01/25 05:41:17;;;;;;;34.80;8.27;;;5.30;99.90;;;;;;5046043;28;20045;-93
2024/01/25 05:43:44;;;;;;;34.77;7.97;;;5.30;99.90;;;;;;5063082;22;20044;-86
2024/01/25 05:46:09;;;;;;;43.90;8.43;;;5.30;99.90;;;;;;5073403;28;20041;-86
2024/01/25 05:48:35;;;;;;;39.80;8.77;;;5.30;99.90;;;;;;5070650;28;20094;-87
2024/01/25 05:51:01;;;;;;;40.80;8.00;;;5.30;99.90;;;;;;5067903;28;20048;-89
2024/01/25 05:53:27;;;;;;;37.60;8.53;;;5.30;99.90;;;;;;5072931;22;20056;-88
2024/01/25 05:55:53;;;;;;;43.23;8.60;;;5.30;99.90;;;;;;5064595;28;20041;-87
2024/01/25 05:58:18;;;;;;;41.23;8.07;;;5.30;99.90;;;;;;5072316;28;20128;-87
2024/01/25 06:00:44;;;;;;;35.27;8.23;;;5.30;99.90;;;;;;5070382;28;20052;-87
2024/01/25 06:03:09;;;;;;;37.83;9.30;;;5.20;99.90;;;;;;5066842;28;20045;-87
2024/01/25 06:05:35;;;;;;;38.07;8.50;;;5.20;99.90;;;;;;5050412;28;20044;-86
2024/01/25 06:08:01;;;;;;;40.93;9.67;;;5.10;99.90;;;;;;5053874;28;20076;-88
2024/01/25 06:10:27;;;;;;;46.87;9.33;;;5.10;99.90;;;;;;5071348;28;20152;-87
2024/01/25 06:12:52;;;;;;;44.13;9.73;;;5.10;99.90;;;;;;5070389;28;20040;-88
2024/01/25 06:15:18;;;;;;;37.80;8.57;;;5.10;99.90;;;;;;5072678;28;20057;-88
2024/01/25 06:17:43;;;;;;;42.93;8.57;;;5.10;99.90;;;;;;5070513;28;20040;-86
2024/01/25 06:20:10;;;;;;;44.37;8.67;;;5.10;99.90;;;;;;5054106;28;20040;-87
2024/01/25 06:22:36;;;;;;;40.63;8.13;;;5.00;99.90;;;;;;5071541;28;20059;-87
2024/01/25 06:25:03;;;;;;;44.63;9.43;;;5.10;99.90;;;;;;5055727;28;20155;-87
2024/01/25 06:27:29;;;;;;;36.97;9.10;;;5.00;99.90;;;;;;5070601;28;20037;-87
2024/01/25 06:29:55;;;;;;;35.83;8.70;;;5.00;99.90;;;;;;5064369;28;20095;-87
2024/01/25 06:32:20;;;;;;;38.80;8.70;;;5.00;99.90;;;;;;5067693;28;20072;-87
2024/01/25 06:34:46;;;;;;;41.97;8.20;;;5.00;99.90;;;;;;5063589;28;20044;-86
2024/01/25 06:37:15;;;;;;;45.57;9.40;;;5.00;99.90;;;;;;5050725;28;20152;-88
2024/01/25 06:39:41;;;;;;;43.13;8.57;;;5.00;99.90;;;;;;5072462;28;20052;-87
2024/01/25 06:42:07;;;;;;;45.87;9.47;;;4.90;99.90;;;;;;5073936;28;20049;-85
2024/01/25 06:44:32;;;;;;;39.10;8.37;;;4.90;99.90;;;;;;5073938;28;20072;-88
2024/01/25 06:46:58;;;;;;;43.10;8.70;;;4.90;99.90;;;;;;5050668;28;20044;-88
2024/01/25 06:49:23;;;;;;;39.70;8.67;;;4.90;99.90;;;;;;5064568;28;20123;-85
2024/01/25 06:51:49;;;;;;;45.07;9.77;;;4.90;99.90;;;;;;5069304;28;20044;-87
2024/01/25 06:54:15;;;;;;;35.83;8.30;;;4.90;99.90;;;;;;5065994;28;20220;-85
2024/01/25 06:56:42;;;;;;;36.63;9.03;;;4.90;99.90;;;;;;5049123;28;20055;-86
2024/01/25 06:59:08;;;;;;;47.37;9.37;;;4.90;99.90;;;;;;5052136;28;20041;-86
2024/01/25 07:01:33;;;;;;;34.13;8.27;;;4.90;99.90;;;;;;5066342;28;20048;-86
2024/01/25 07:03:59;;;;;;;40.20;8.53;;;4.90;99.90;;;;;;5067292;28;20108;-87
2024/01/25 07:06:26;;;;;;;36.03;8.67;;;4.80;99.90;;;;;;5067219;28;20123;-87
2024/01/25 07:08:53;;;;;;;44.10;9.50;;;4.80;99.90;;;;;;5067435;28;20040;-88
2024/01/25 07:11:19;;;;;;;39.33;8.67;;;4.80;99.90;;;;;;5068549;28;20052;-87
2024/01/25 07:13:44;;;;;;;43.33;9.00;;;4.70;99.90;;;;;;5063360;28;20538;-87
2024/01/25 07:16:10;;;;;;;44.07;9.20;;;4.80;99.90;;;;;;5052770;28;20442;-88
2024/01/25 07:18:36;;;;;;;41.60;8.50;;;4.70;99.90;;;;;;5067473;28;20040;-88
2024/01/25 07:21:02;;;;;;;43.17;9.00;;;4.70;99.90;;;;;;5047865;28;20543;-88
2024/01/25 07:23:30;;;;;;;46.47;9.23;;;4.80;99.90;;;;;;5063945;28;20120;-85
2024/01/25 07:25:55;;;;;;;41.90;9.07;;;4.70;99.90;;;;;;5065563;28;20044;-88
2024/01/25 07:28:21;;;;;;;38.40;8.20;;;4.80;99.90;;;;;;5046223;28;20134;-88
2024/01/25 07:30:47;;;;;;;38.53;8.40;;;4.80;99.90;;;;;;5059425;28;20037;-86
2024/01/25 07:33:13;;;;;;;37.23;8.33;;;4.80;99.90;;;;;;5065349;28;20198;-87
2024/01/25 07:35:45;;;;;;;43.10;8.77;;;4.70;99.90;;;;;;5065364;28;20578;-88
2024/01/25 07:38:11;;;;;;;39.60;8.57;;;4.70;99.90;;;;;;5064289;28;20420;-88
2024/01/25 07:40:37;;;;;;;40.50;8.30;;;4.80;99.90;;;;;;5063292;28;20104;-88
2024/01/25 07:43:03;;;;;;;35.83;8.80;;;4.80;99.90;;;;;;5059461;28;20083;-87
2024/01/25 07:45:29;;;;;;;34.10;8.47;;;4.80;99.90;;;;;;5057696;28;20513;-84
2024/01/25 07:47:54;;;;;;;48.37;9.00;;;4.80;99.90;;;;;;5055535;28;20048;-88
2024/01/25 07:50:20;;;;;;;45.80;9.37;;;4.80;99.90;;;;;;5055497;28;20040;-87
2024/01/25 07:52:46;;;;;;;31.77;8.57;;;4.80;99.90;;;;;;5060165;28;20060;-91
2024/01/25 07:55:12;;;;;;;42.73;9.17;;;4.80;99.90;;;;;;5061142;28;20546;-88
2024/01/25 07:57:38;;;;;;;42.83;8.20;;;4.80;99.90;;;;;;5061732;28;20032;-88
2024/01/25 08:00:04;;;;;;;47.77;9.80;;;4.80;99.90;;;;;;5061601;28;20369;-87
2024/01/25 08:02:30;;;;;;;37.77;8.40;;;4.90;99.90;;;;;;5062500;28;20045;-87
2024/01/25 08:04:57;;;;;;;37.57;8.97;;;4.90;99.90;;;;;;5053523;28;20195;-90
2024/01/25 08:07:23;;;;;;;46.80;9.53;;;4.90;99.90;;;;;;5061341;28;20052;-90
2024/01/25 08:09:51;;;;;;;40.90;8.70;;;5.00;99.90;;;;;;5057134;28;20045;-89
2024/01/25 08:12:17;;;;;;;40.63;8.67;;;5.00;99.90;;;;;;5061915;28;20033;-88
2024/01/25 08:14:43;;;;;;;43.27;9.30;;;5.10;99.90;;;;;;5061043;28;20819;-88
2024/01/25 08:17:10;;;;;;;47.23;10.60;;;5.10;99.90;;;;;;5059389;28;20739;-86
2024/01/25 08:19:35;;;;;;;38.17;8.73;;;5.10;99.90;;;;;;5043872;28;20041;-88
2024/01/25 08:22:01;;;;;;;39.10;8.43;;;5.20;99.90;;;;;;5058918;28;20047;-88
2024/01/25 08:24:27;;;;;;;44.67;9.40;;;5.20;99.90;;;;;;5063145;28;20370;-87
2024/01/25 08:26:53;;;;;;;43.60;9.17;;;5.30;99.90;;;;;;5059949;28;20036;-88
2024/01/25 08:29:19;;;;;;;42.73;9.20;;;5.30;99.90;;;;;;5062050;28;20049;-87
2024/01/25 08:31:46;;;;;;;36.33;8.77;;;5.40;99.90;;;;;;5062250;28;20095;-87
2024/01/25 08:34:11;;;;;;;38.70;8.23;;;5.40;99.90;;;;;;5059775;28;20117;-89
2024/01/25 08:36:37;;;;;;;42.90;8.63;;;5.40;99.90;;;;;;5061364;28;20136;-87
2024/01/25 08:39:04;;;;;;;45.37;9.20;;;5.50;99.90;;;;;;5060257;28;20041;-85
2024/01/25 08:41:30;;;;;;;41.97;9.30;;;5.50;99.90;;;;;;5062364;28;20055;-87
2024/01/25 08:43:55;;;;;;;40.17;9.73;;;5.50;99.90;;;;;;5060725;28;20045;-86
2024/01/25 08:46:21;;;;;;;41.43;9.47;;;5.60;99.90;;;;;;5061052;28;20044;-87
2024/01/25 08:48:47;;;;;;;36.80;8.87;;;5.50;99.90;;;;;;5061732;28;20060;-87
2024/01/25 08:51:13;;;;;;;35.57;8.53;;;5.50;99.90;;;;;;5044004;28;20135;-87
2024/01/25 08:53:38;;;;;;;42.70;8.63;;;5.50;99.90;;;;;;5055512;28;20099;-86
2024/01/25 08:56:04;;;;;;;37.70;9.00;;;5.60;99.90;;;;;;5054680;28;20064;-85
2024/01/25 08:58:30;;;;;;;42.13;9.57;;;5.60;99.90;;;;;;5061098;28;20130;-86
2024/01/25 09:00:56;;;;;;;39.80;10.20;;;5.60;99.90;;;;;;5058074;28;20037;-88
2024/01/25 09:03:22;;;;;;;41.43;9.93;;;5.60;99.90;;;;;;5062480;28;20048;-88
2024/01/25 09:05:48;;;;;;;39.83;9.23;;;5.60;99.90;;;;;;5061063;28;20040;-86
2024/01/25 09:08:14;;;;;;;43.67;9.20;;;5.60;99.90;;;;;;5061032;28;20586;-88
2024/01/25 09:10:42;;;;;;;37.93;9.60;;;5.70;99.90;;;;;;5061787;28;20081;-87
2024/01/25 09:13:08;;;;;;;40.13;9.13;;;5.70;99.90;;;;;;5059446;28;20044;-89
2024/01/25 09:15:34;;;;;;;42.13;8.57;;;5.70;99.90;;;;;;5062382;28;20032;-86
2024/01/25 09:18:00;;;;;;;39.87;8.70;;;5.80;99.90;;;;;;5061093;28;20524;-88
2024/01/25 09:20:26;;;;;;;41.37;10.20;;;5.90;99.90;;;;;;5048546;28;20041;-89
2024/01/25 09:22:53;;;;;;;37.37;8.50;;;5.90;99.90;;;;;;5050056;28;20051;-88
2024/01/25 09:25:19;;;;;;;40.93;8.90;;;6.00;99.90;;;;;;5064378;28;20520;-87
2024/01/25 09:27:45;;;;;;;40.63;9.40;;;6.00;99.90;;;;;;5067707;28;20057;-89
2024/01/25 09:30:11;;;;;;;34.60;8.30;;;6.10;99.90;;;;;;5061883;28;20475;-88
2024/01/25 09:32:37;;;;;;;42.17;8.37;;;6.10;99.90;;;;;;5047833;28;20044;-87
2024/01/25 09:35:03;;;;;;;36.10;8.70;;;6.20;99.90;;;;;;5063071;28;20054;-87
2024/01/25 09:37:28;;;;;;;39.83;9.13;;;6.20;99.90;;;;;;5047431;28;20075;-87
2024/01/25 09:39:54;;;;;;;39.33;9.03;;;6.20;99.90;;;;;;5063004;28;20036;-89
2024/01/25 09:42:20;;;;;;;39.97;9.23;;;6.30;99.90;;;;;;5045619;28;20121;-86
2024/01/25 09:44:46;;;;;;;40.47;9.13;;;6.30;99.90;;;;;;5066227;28;20052;-90
2024/01/25 09:47:13;;;;;;;37.17;8.83;;;6.30;99.90;;;;;;5062166;28;20040;-89
2024/01/25 09:49:39;;;;;;;35.47;9.13;;;6.30;99.90;;;;;;5064975;28;20040;-87
2024/01/25 09:52:05;;;;;;;41.53;10.00;;;6.40;99.90;;;;;;5041674;28;20381;-88
2024/01/25 09:54:35;;;;;;;36.90;9.50;;;6.30;99.90;;;;;;5079946;28;20060;-86
2024/01/25 09:57:06;;;;;;;41.07;9.33;;;6.30;99.90;;;;;;5063143;28;20052;-85
2024/01/25 09:59:32;;;;;;;38.70;9.10;;;6.30;99.90;;;;;;5045704;28;20044;-88
2024/01/25 10:01:59;;;;;;;43.93;9.70;;;6.30;99.90;;;;;;5063221;28;20052;-88
2024/01/25 10:04:24;;;;;;;41.27;8.83;;;6.30;99.90;;;;;;5078901;28;20044;-88
2024/01/25 10:06:50;;;;;;;39.60;9.60;;;6.30;99.90;;;;;;5064318;28;20435;-88
2024/01/25 10:09:16;;;;;;;40.10;9.57;;;6.30;99.90;;;;;;5061794;28;20068;-89
2024/01/25 10:11:42;;;;;;;40.90;10.17;;;6.30;99.90;;;;;;5065692;28;20066;-88
2024/01/25 10:14:08;;;;;;;36.27;10.27;;;6.30;99.90;;;;;;5063429;28;20131;-88
2024/01/25 10:16:34;;;;;;;44.10;9.40;;;6.30;99.90;;;;;;5064162;28;20049;-86
2024/01/25 10:19:02;;;;;;;39.57;9.97;;;6.30;99.90;;;;;;5064680;28;20049;-89
2024/01/25 10:21:29;;;;;;;40.97;9.80;;;6.30;99.90;;;;;;5071470;28;20074;-87
2024/01/25 10:23:57;;;;;;;35.87;10.17;;;6.30;99.90;;;;;;5070263;28;20046;-87
2024/01/25 10:26:27;;;;;;;40.83;8.90;;;6.30;99.90;;;;;;5068642;28;20048;-86
2024/01/25 10:28:53;;;;;;;37.07;10.20;;;6.30;99.90;;;;;;5070743;28;20047;-88
2024/01/25 10:31:18;;;;;;;43.63;9.57;;;6.30;99.90;;;;;;5073419;28;20136;-87
2024/01/25 10:33:46;;;;;;;43.93;10.30;;;6.30;99.90;;;;;;5073343;28;20072;-84
2024/01/25 10:36:13;;;;;;;40.20;9.40;;;6.30;99.90;;;;;;5073216;28;20056;-85
2024/01/25 10:38:40;;;;;;;37.53;9.47;;;6.30;99.90;;;;;;5057284;28;20101;-85
2024/01/25 10:41:06;;;;;;;42.33;9.37;;;6.40;99.90;;;;;;5074018;28;20218;-85
2024/01/25 10:43:32;;;;;;;35.23;9.77;;;6.40;99.90;;;;;;5067947;28;20155;-85
2024/01/25 10:45:59;;;;;;;40.30;9.70;;;6.60;99.90;;;;;;5074994;28;20041;-85
2024/01/25 10:48:26;;;;;;;35.37;9.83;;;6.70;99.90;;;;;;5059843;28;20063;-85
2024/01/25 10:50:53;;;;;;;44.77;11.20;;;6.80;99.90;;;;;;5070139;28;20077;-85
2024/01/25 10:53:20;;;;;;;40.80;10.37;;;6.90;99.90;;;;;;5073729;28;20063;-85
2024/01/25 10:55:46;;;;;;;39.83;10.03;;;7.00;99.90;;;;;;5075408;28;20075;-84
2024/01/25 10:58:16;;;;;;;41.83;10.13;;;7.10;99.90;;;;;;5073760;28;20052;-85
2024/01/25 11:00:55;;;;;;;37.23;9.27;;;7.10;99.90;;;;;;5072018;28;20554;-85
2024/01/25 11:03:25;;;;;;;35.47;9.93;;;7.20;99.90;;;;;;5068165;28;20125;-85
2024/01/25 11:05:52;;;;;;;42.03;9.80;;;7.30;99.90;;;;;;5077258;28;20059;-84
2024/01/25 11:08:21;;;;;;;40.70;9.00;;;7.40;99.90;;;;;;5064184;28;20053;-84
2024/01/25 11:10:51;;;;;;;42.17;9.73;;;7.40;99.90;;;;;;5067619;28;20037;-84
2024/01/25 11:13:24;;;;;;;33.07;8.57;;;7.40;99.90;;;;;;5068145;28;20523;-84
2024/01/25 11:15:49;;;;;;;37.63;8.70;;;7.30;99.90;;;;;;5076080;28;20043;-84
2024/01/25 11:18:16;;;;;;;34.53;9.20;;;7.40;99.90;;;;;;5064398;28;20041;-84
2024/01/25 11:20:42;;;;;;;44.70;9.47;;;7.40;99.90;;;;;;5071669;28;20087;-85
2024/01/25 11:23:10;;;;;;;46.43;9.80;;;7.40;99.90;;;;;;5068635;28;20060;-85
2024/01/25 11:25:37;;;;;;;32.57;8.40;;;7.50;99.90;;;;;;5069693;28;20395;-85
2024/01/25 11:28:05;;;;;;;26.97;8.57;;;7.60;99.90;;;;;;5064534;28;20052;-85
2024/01/25 11:30:33;;;;;;;33.90;9.30;;;7.80;99.90;;;;;;5055574;28;20052;-85
2024/01/25 11:32:59;;;;;;;40.97;9.53;;;7.90;99.90;;;;;;5076436;28;20555;-86
2024/01/25 11:35:26;;;;;;;35.93;8.80;;;7.90;99.90;;;;;;5068483;28;20080;-84
2024/01/25 11:37:53;;;;;;;33.20;8.67;;;8.00;99.90;;;;;;5075423;28;20550;-87
2024/01/25 11:40:19;;;;;;;35.67;8.33;;;8.10;99.90;;;;;;5074080;28;20442;-85
2024/01/25 11:42:48;;;;;;;33.47;8.83;;;8.10;99.90;;;;;;5071248;28;20041;-86
2024/01/25 11:45:14;;;;;;;32.67;8.20;;;8.10;99.90;;;;;;5069765;28;20043;-87
2024/01/25 11:47:42;;;;;;;31.57;8.60;;;8.10;99.90;;;;;;5066658;28;20045;-84
2024/01/25 11:50:10;;;;;;;33.37;8.07;;;8.10;99.90;;;;;;5068718;28;20041;-86
2024/01/25 11:52:37;;;;;;;30.90;7.70;;;8.10;99.90;;;;;;5051558;28;20082;-87
2024/01/25 11:55:03;;;;;;;29.97;7.83;;;8.10;99.90;;;;;;5072625;28;20536;-88
2024/01/25 11:57:42;;;;;;;35.27;11.57;;;8.00;99.90;;;;;;5071037;28;20044;-87
2024/01/25 12:00:10;;;;;;;38.50;8.93;;;8.10;99.90;;;;;;5066434;28;20045;-88
2024/01/25 12:02:37;;;;;;;33.73;8.33;;;8.10;99.90;;;;;;5067547;28;20803;-89
2024/01/25 12:05:03;;;;;;;27.10;8.13;;;8.10;99.90;;;;;;5064697;28;20143;-91
2024/01/25 12:07:33;;;;;;;28.43;8.33;;;8.10;99.90;;;;;;5059186;28;20044;-89
2024/01/25 12:10:07;;;;;;;35.83;8.47;;;8.20;99.90;;;;;;5072290;28;20045;-90
2024/01/25 12:12:35;;;;;;;34.63;8.93;;;8.20;99.90;;;;;;5073600;28;20040;-89
2024/01/25 12:15:03;;;;;;;34.53;8.43;;;8.30;99.90;;;;;;5071049;28;20060;-87
2024/01/25 12:17:30;;;;;;;27.07;8.20;;;8.30;99.90;;;;;;5062919;28;20273;-88
2024/01/25 12:19:57;;;;;;;31.60;8.53;;;8.30;99.90;;;;;;5062619;28;20139;-90
2024/01/25 12:22:24;;;;;;;28.00;9.03;;;8.30;99.90;;;;;;5068308;28;20157;-88
2024/01/25 12:24:53;;;;;;;32.50;8.63;;;8.30;99.90;;;;;;5049893;28;20052;-88
2024/01/25 12:27:22;;;;;;;29.47;7.70;;;8.30;99.90;;;;;;5055037;28;20303;-88
2024/01/25 12:29:48;;;;;;;33.37;8.80;;;8.30;99.90;;;;;;5069308;28;20056;-89
2024/01/25 12:32:13;;;;;;;27.47;7.50;;;8.30;99.90;;;;;;5063699;28;20053;-89
2024/01/25 12:34:41;;;;;;;31.60;8.00;;;8.30;99.90;;;;;;5062562;28;20048;-88
2024/01/25 12:37:07;;;;;;;31.17;7.93;;;8.40;99.90;;;;;;5057826;28;20104;-89
2024/01/25 12:39:33;;;;;;;33.67;8.03;;;8.40;99.90;;;;;;5064306;28;20044;-89
2024/01/25 12:41:59;;;;;;;31.60;8.17;;;8.40;99.90;;;;;;5064089;28;20977;-88
2024/01/25 12:44:25;;;;;;;29.53;8.73;;;8.50;99.90;;;;;;5067763;28;20063;-88
2024/01/25 12:46:51;;;;;;;31.90;8.63;;;8.50;99.90;;;;;;5064098;28;20048;-89
2024/01/25 12:49:17;;;;;;;28.60;7.73;;;8.50;99.90;;;;;;5056742;28;20120;-90
2024/01/25 12:51:43;;;;;;;31.30;9.20;;;8.50;99.90;;;;;;5067980;28;20041;-88
2024/01/25 12:54:09;;;;;;;33.43;9.57;;;8.50;99.90;;;;;;5064655;28;20060;-88
2024/01/25 12:56:35;;;;;;;29.97;8.20;;;8.50;99.90;;;;;;5057794;28;20045;-86